Time;durP1;ratioP1;P1;durP2;ratioP2;P2;SDS_P1;SDS_P2;PMS_P1;PMS_P2;Temp;Humidity;BMP_temperature;BMP_pressure;BME280_temperature;BME280_humidity;BME280_pressure;Samples;Min_cycle;Max_cycle;Signal;HPM_P1;HPM_P2
2023/07/21 00:00:41;;;;;;;4.20;3.80;;;17.90;99.90;;;;;;4990985;28;20054;-49
2023/07/21 00:03:26;;;;;;;5.38;4.28;;;18.00;99.90;;;;;;4995590;28;20034;-50
2023/07/21 00:06:17;;;;;;;6.53;3.55;;;18.00;99.90;;;;;;4995770;28;20042;-47
2023/07/21 00:09:06;;;;;;;5.55;3.95;;;18.10;99.90;;;;;;5001907;28;20022;-45
2023/07/21 00:11:52;;;;;;;6.95;3.78;;;18.00;99.90;;;;;;4995876;28;20034;-47
2023/07/21 00:14:37;;;;;;;7.82;4.20;;;18.00;99.90;;;;;;4992592;28;20114;-47
2023/07/21 00:17:25;;;;;;;5.57;3.90;;;17.90;99.90;;;;;;4993682;28;20088;-46
2023/07/21 00:20:14;;;;;;;4.97;4.13;;;17.90;99.90;;;;;;4993913;28;20038;-46
2023/07/21 00:23:00;;;;;;;4.35;3.67;;;17.90;99.90;;;;;;4993948;28;20045;-45
2023/07/21 00:25:47;;;;;;;6.70;3.75;;;17.90;99.90;;;;;;4995096;28;20130;-52
2023/07/21 00:28:33;;;;;;;5.40;4.13;;;18.00;99.90;;;;;;4993806;28;20034;-52
2023/07/21 00:31:18;;;;;;;6.25;4.70;;;18.00;99.90;;;;;;4994812;28;20035;-47
2023/07/21 00:34:05;;;;;;;4.28;3.78;;;17.90;99.90;;;;;;4994111;28;20106;-43
2023/07/21 00:36:55;;;;;;;4.97;4.00;;;17.90;99.90;;;;;;4994066;28;20033;-44
2023/07/21 00:39:42;;;;;;;4.55;4.10;;;17.80;99.90;;;;;;4994431;28;20442;-47
2023/07/21 00:42:28;;;;;;;9.23;4.47;;;17.70;99.90;;;;;;4995358;28;20033;-45
2023/07/21 00:45:14;;;;;;;7.82;4.25;;;17.50;99.90;;;;;;4994012;28;20102;-46
2023/07/21 00:48:03;;;;;;;5.03;4.07;;;17.40;99.90;;;;;;4994919;28;20061;-46
2023/07/21 00:50:53;;;;;;;5.90;4.30;;;17.30;99.90;;;;;;4988493;28;20023;-46
2023/07/21 00:53:39;;;;;;;4.90;3.90;;;17.30;99.90;;;;;;4974813;28;20553;-43
2023/07/21 00:56:25;;;;;;;10.77;4.43;;;17.30;99.90;;;;;;4975989;28;20511;-43
2023/07/21 00:59:11;;;;;;;5.88;4.32;;;17.30;99.90;;;;;;4989594;28;20022;-43
2023/07/21 01:01:58;;;;;;;5.22;4.45;;;17.30;99.90;;;;;;4994137;28;20064;-47
2023/07/21 01:04:45;;;;;;;7.82;5.22;;;17.20;99.90;;;;;;4994315;28;20096;-45
2023/07/21 01:07:33;;;;;;;5.63;4.40;;;16.90;99.90;;;;;;4977140;28;20027;-51
2023/07/21 01:10:20;;;;;;;5.10;4.57;;;16.80;99.90;;;;;;4994583;28;20077;-53
2023/07/21 01:13:07;;;;;;;5.00;4.50;;;16.70;99.90;;;;;;4993174;28;20036;-49
2023/07/21 01:15:55;;;;;;;5.65;4.45;;;16.70;99.90;;;;;;4993783;28;20026;-50
2023/07/21 01:18:43;;;;;;;4.97;4.05;;;16.70;99.90;;;;;;4993002;28;20553;-47
2023/07/21 01:21:40;;;;;;;5.50;4.30;;;16.80;99.90;;;;;;4993750;28;20030;-49
2023/07/21 01:24:46;;;;;;;4.82;4.15;;;16.90;99.90;;;;;;4992759;28;20403;-49
2023/07/21 01:27:36;;;;;;;6.13;4.35;;;17.00;99.90;;;;;;4994368;28;20083;-52
2023/07/21 01:30:23;;;;;;;5.68;3.83;;;17.00;99.90;;;;;;4994846;28;20026;-52
2023/07/21 01:33:10;;;;;;;5.93;4.15;;;17.10;99.90;;;;;;4996095;28;20048;-51
2023/07/21 01:35:57;;;;;;;5.22;3.90;;;17.10;99.90;;;;;;4993787;28;20027;-46
2023/07/21 01:38:44;;;;;;;6.82;4.70;;;17.10;99.90;;;;;;4994372;28;20030;-49
2023/07/21 01:41:31;;;;;;;5.25;4.25;;;17.00;99.90;;;;;;4993480;28;20026;-47
2023/07/21 01:44:21;;;;;;;6.50;3.55;;;17.00;99.90;;;;;;4990581;28;20027;-54
2023/07/21 01:47:07;;;;;;;6.13;4.20;;;17.00;99.90;;;;;;4992803;28;20391;-52
2023/07/21 01:49:53;;;;;;;5.05;4.05;;;17.00;99.90;;;;;;4992229;28;20037;-49
2023/07/21 01:52:41;;;;;;;7.28;4.90;;;17.00;99.90;;;;;;4977633;28;20525;-55
2023/07/21 01:55:35;;;;;;;6.43;4.25;;;16.90;99.90;;;;;;4988651;28;20038;-51
2023/07/21 01:58:22;;;;;;;7.00;4.50;;;16.80;99.90;;;;;;4992554;28;20022;-51
2023/07/21 02:01:10;;;;;;;23.98;19.13;;;16.80;99.90;;;;;;4992148;28;20046;-50
2023/07/21 02:03:56;;;;;;;20.95;16.08;;;16.80;99.90;;;;;;4991701;28;20031;-49
2023/07/21 02:06:42;;;;;;;10.88;8.70;;;16.80;99.90;;;;;;4992913;28;20551;-53
2023/07/21 02:09:28;;;;;;;6.30;5.53;;;16.80;99.90;;;;;;4992246;28;20495;-50
2023/07/21 02:12:14;;;;;;;4.80;4.30;;;16.80;99.90;;;;;;4992625;28;20040;-50
2023/07/21 02:15:00;;;;;;;5.68;4.30;;;16.80;99.90;;;;;;4992815;28;20023;-52
2023/07/21 02:17:46;;;;;;;6.72;4.40;;;16.90;99.90;;;;;;4992986;28;20101;-50
2023/07/21 02:20:32;;;;;;;5.25;4.28;;;16.90;99.90;;;;;;4991463;28;20088;-46
2023/07/21 02:23:18;;;;;;;4.45;4.05;;;16.90;99.90;;;;;;4991687;28;20492;-50
2023/07/21 02:26:04;;;;;;;6.47;4.47;;;16.90;99.90;;;;;;4990911;28;20451;-47
2023/07/21 02:28:49;;;;;;;5.78;4.40;;;16.90;99.90;;;;;;4992244;28;20427;-49
2023/07/21 02:31:35;;;;;;;6.18;5.07;;;16.80;99.90;;;;;;4987368;28;20057;-48
2023/07/21 02:34:21;;;;;;;4.88;4.38;;;16.70;99.90;;;;;;4992430;28;20044;-50
2023/07/21 02:37:07;;;;;;;4.53;4.10;;;16.70;99.90;;;;;;4993364;28;20030;-48
2023/07/21 02:39:53;;;;;;;6.63;4.60;;;16.70;99.90;;;;;;4991953;28;20081;-49
2023/07/21 02:42:39;;;;;;;13.68;4.72;;;16.80;99.90;;;;;;4991447;28;20062;-53
2023/07/21 02:45:25;;;;;;;4.68;4.20;;;16.90;99.90;;;;;;4993214;28;20054;-50
2023/07/21 02:48:11;;;;;;;5.78;3.95;;;16.90;99.90;;;;;;4992161;28;20479;-50
2023/07/21 02:51:00;;;;;;;4.50;3.90;;;16.90;99.90;;;;;;4991458;28;20502;-53
2023/07/21 02:53:47;;;;;;;4.97;4.07;;;17.00;99.90;;;;;;4992895;28;20041;-50
2023/07/21 02:56:34;;;;;;;6.28;4.30;;;16.90;99.90;;;;;;4992428;28;20023;-53
2023/07/21 02:59:23;;;;;;;5.95;4.30;;;16.90;99.90;;;;;;4992597;28;20041;-50
2023/07/21 03:02:09;;;;;;;6.10;4.50;;;16.90;99.90;;;;;;4992666;28;20085;-47
2023/07/21 03:04:55;;;;;;;5.47;4.47;;;16.80;99.90;;;;;;4990955;28;20073;-50
2023/07/21 03:07:41;;;;;;;5.38;4.05;;;16.80;99.90;;;;;;4990697;28;20049;-49
2023/07/21 03:10:27;;;;;;;7.63;4.13;;;16.60;99.90;;;;;;4993045;28;20029;-49
2023/07/21 03:13:13;;;;;;;5.53;4.30;;;16.60;99.90;;;;;;4991672;28;20121;-55
2023/07/21 03:16:00;;;;;;;7.10;4.35;;;16.50;99.90;;;;;;4992959;28;20041;-52
2023/07/21 03:18:46;;;;;;;6.03;3.90;;;16.50;99.90;;;;;;4991553;28;20037;-53
2023/07/21 03:21:32;;;;;;;4.20;3.80;;;16.60;99.90;;;;;;4992376;28;20573;-54
2023/07/21 03:24:18;;;;;;;7.05;3.90;;;16.60;99.90;;;;;;4992760;28;20471;-47
2023/07/21 03:27:04;;;;;;;5.80;4.28;;;16.70;99.90;;;;;;4991549;28;20046;-47
2023/07/21 03:29:53;;;;;;;5.07;3.80;;;16.70;99.90;;;;;;4992323;28;20622;-54
2023/07/21 03:32:39;;;;;;;4.88;4.38;;;16.70;99.90;;;;;;4991647;28;20491;-54
2023/07/21 03:35:25;;;;;;;6.93;4.22;;;16.70;99.90;;;;;;4992580;28;20019;-55
2023/07/21 03:38:11;;;;;;;4.05;3.65;;;16.70;99.90;;;;;;4995256;28;20026;-51
2023/07/21 03:41:08;;;;;;;5.88;4.65;;;16.70;99.90;;;;;;4995182;28;20129;-50
2023/07/21 03:43:54;;;;;;;4.10;3.70;;;16.70;99.90;;;;;;4996615;28;20061;-51
2023/07/21 03:46:40;;;;;;;6.03;4.40;;;16.70;99.90;;;;;;4996705;28;20034;-50
2023/07/21 03:49:26;;;;;;;7.50;4.38;;;16.80;99.90;;;;;;4996582;28;20161;-48
2023/07/21 03:52:13;;;;;;;8.25;4.68;;;16.80;99.90;;;;;;4996356;28;20022;-50
2023/07/21 03:54:59;;;;;;;5.82;4.20;;;16.90;99.90;;;;;;4996270;28;20030;-51
2023/07/21 03:57:44;;;;;;;6.18;3.92;;;16.90;99.90;;;;;;4994693;28;20031;-52
2023/07/21 04:00:30;;;;;;;6.90;4.40;;;16.90;99.90;;;;;;4996253;28;20026;-51
2023/07/21 04:03:20;;;;;;;6.07;3.95;;;17.00;99.90;;;;;;4995023;28;20037;-54
2023/07/21 04:06:07;;;;;;;4.68;4.05;;;17.00;99.90;;;;;;4995792;28;20070;-51
2023/07/21 04:08:53;;;;;;;6.32;4.30;;;17.10;99.90;;;;;;4995467;28;20109;-51
2023/07/21 04:11:42;;;;;;;5.03;4.10;;;17.10;99.90;;;;;;4994392;28;20038;-49
2023/07/21 04:14:28;;;;;;;6.50;4.60;;;17.10;99.90;;;;;;4995473;28;20126;-51
2023/07/21 04:17:14;;;;;;;4.40;4.00;;;17.10;99.90;;;;;;4994408;28;20090;-50
2023/07/21 04:20:00;;;;;;;5.72;4.60;;;17.10;99.90;;;;;;4995387;28;20034;-50
2023/07/21 04:22:46;;;;;;;4.90;4.40;;;17.10;99.90;;;;;;4995405;28;20030;-49
2023/07/21 04:25:32;;;;;;;6.65;4.10;;;17.10;99.90;;;;;;4995356;28;20037;-52
2023/07/21 04:28:18;;;;;;;6.03;4.82;;;17.10;99.90;;;;;;4994315;28;20026;-52
2023/07/21 04:31:04;;;;;;;5.65;4.07;;;17.10;99.90;;;;;;4994532;28;20030;-51
2023/07/21 04:33:50;;;;;;;4.35;3.95;;;17.20;99.90;;;;;;4995350;28;20049;-50
2023/07/21 04:36:36;;;;;;;5.85;5.25;;;17.20;99.90;;;;;;4995541;28;20125;-54
2023/07/21 04:39:22;;;;;;;13.55;11.98;;;17.30;99.90;;;;;;4994774;28;20026;-50
2023/07/21 04:42:11;;;;;;;19.17;17.13;;;17.40;99.90;;;;;;4993957;28;20030;-53
2023/07/21 04:44:57;;;;;;;15.68;11.60;;;17.50;99.90;;;;;;4994625;28;20033;-52
2023/07/21 04:47:42;;;;;;;10.07;8.32;;;17.50;99.90;;;;;;4994687;28;20042;-49
2023/07/21 04:50:28;;;;;;;7.60;6.00;;;17.60;99.90;;;;;;4994886;28;20108;-49
2023/07/21 04:53:14;;;;;;;6.32;5.72;;;17.70;99.90;;;;;;4994781;28;20027;-53
2023/07/21 04:56:00;;;;;;;9.02;6.38;;;17.50;99.90;;;;;;4994628;28;20085;-53
2023/07/21 04:58:46;;;;;;;7.40;5.55;;;17.40;99.90;;;;;;4994491;28;20022;-52
2023/07/21 05:01:32;;;;;;;9.43;5.97;;;17.40;99.90;;;;;;4995031;28;20433;-54
2023/07/21 05:04:19;;;;;;;10.90;9.80;;;17.40;99.90;;;;;;4994786;28;20026;-48
2023/07/21 05:07:05;;;;;;;8.07;7.07;;;17.40;99.90;;;;;;4994857;28;20061;-51
2023/07/21 05:09:52;;;;;;;8.40;6.97;;;17.50;99.90;;;;;;4993947;28;20062;-51
2023/07/21 05:12:37;;;;;;;10.90;8.70;;;17.70;99.90;;;;;;4993933;28;20058;-47
2023/07/21 05:15:24;;;;;;;10.02;7.93;;;17.70;99.90;;;;;;4994809;28;20041;-53
2023/07/21 05:18:10;;;;;;;6.60;5.97;;;17.80;99.90;;;;;;4993508;28;20029;-48
2023/07/21 05:20:56;;;;;;;8.07;6.05;;;17.80;99.90;;;;;;4994281;28;20026;-46
2023/07/21 05:23:42;;;;;;;8.80;6.43;;;17.80;99.90;;;;;;4994962;28;20023;-48
2023/07/21 05:26:29;;;;;;;7.53;5.80;;;17.80;99.90;;;;;;4993954;28;20061;-47
2023/07/21 05:29:15;;;;;;;5.80;5.20;;;17.80;99.90;;;;;;4994704;28;20403;-52
2023/07/21 05:32:03;;;;;;;7.50;5.70;;;17.80;99.90;;;;;;4995378;28;20026;-54
2023/07/21 05:34:49;;;;;;;29.70;24.27;;;17.70;99.90;;;;;;4994112;28;20038;-53
2023/07/21 05:37:35;;;;;;;25.58;21.75;;;17.70;99.90;;;;;;4994255;28;20026;-47
2023/07/21 05:40:21;;;;;;;10.90;8.43;;;17.80;99.90;;;;;;4993742;28;20502;-48
2023/07/21 05:43:07;;;;;;;7.60;6.43;;;18.00;99.90;;;;;;4993596;28;20034;-54
2023/07/21 05:45:53;;;;;;;6.18;5.57;;;18.10;99.90;;;;;;4993596;28;20030;-53
2023/07/21 05:48:39;;;;;;;8.43;5.70;;;18.10;99.90;;;;;;4984238;28;20077;-54
2023/07/21 05:51:25;;;;;;;12.05;7.28;;;18.30;99.90;;;;;;4994005;28;20030;-54
2023/07/21 05:54:11;;;;;;;20.80;12.13;;;18.40;99.90;;;;;;4991446;28;20023;-53
2023/07/21 05:56:58;;;;;;;9.13;8.07;;;18.50;99.90;;;;;;4993919;28;20026;-52
2023/07/21 05:59:45;;;;;;;7.13;6.43;;;18.50;99.90;;;;;;4993473;28;20395;-51
2023/07/21 06:02:31;;;;;;;8.82;5.60;;;18.50;99.90;;;;;;4989940;28;20054;-50
2023/07/21 06:05:18;;;;;;;39.67;27.38;;;18.50;99.90;;;;;;4992927;28;20042;-50
2023/07/21 06:08:04;;;;;;;19.40;15.30;;;18.40;99.90;;;;;;4993180;28;20031;-48
2023/07/21 06:10:54;;;;;;;13.40;11.50;;;18.50;99.90;;;;;;4994233;28;20034;-52
2023/07/21 06:13:40;;;;;;;11.18;7.90;;;18.50;99.90;;;;;;4993154;28;20388;-50
2023/07/21 06:16:26;;;;;;;7.47;6.55;;;18.50;99.90;;;;;;4991997;28;20027;-51
2023/07/21 06:19:12;;;;;;;7.55;6.32;;;18.40;99.90;;;;;;4991578;28;20034;-51
2023/07/21 06:21:58;;;;;;;11.50;10.30;;;18.40;99.90;;;;;;4990431;28;20058;-48
2023/07/21 06:24:44;;;;;;;11.68;8.70;;;18.50;99.90;;;;;;4991219;28;20038;-50
2023/07/21 06:27:31;;;;;;;7.45;6.43;;;18.60;99.90;;;;;;4990506;28;20079;-48
2023/07/21 06:30:17;;;;;;;7.63;6.55;;;18.70;99.90;;;;;;4992022;28;20509;-54
2023/07/21 06:33:07;;;;;;;7.03;6.20;;;18.70;99.90;;;;;;4991217;28;20044;-49
2023/07/21 06:35:54;;;;;;;8.85;6.95;;;18.80;99.90;;;;;;4976308;28;20027;-50
2023/07/21 06:38:40;;;;;;;8.98;6.68;;;18.80;99.90;;;;;;4990217;28;20081;-51
2023/07/21 06:41:26;;;;;;;10.82;6.10;;;18.80;99.90;;;;;;4984212;28;20514;-56
2023/07/21 06:44:12;;;;;;;8.68;7.35;;;18.80;99.90;;;;;;4988070;28;20035;-50
2023/07/21 06:46:58;;;;;;;9.48;6.47;;;18.80;99.90;;;;;;4985876;28;20038;-55
2023/07/21 06:49:43;;;;;;;18.67;8.73;;;18.90;99.90;;;;;;4991955;28;20109;-51
2023/07/21 06:52:30;;;;;;;7.65;6.55;;;19.00;99.90;;;;;;4990858;28;20447;-52
2023/07/21 06:55:16;;;;;;;6.75;5.63;;;19.10;99.90;;;;;;4993222;28;20027;-54
2023/07/21 06:58:02;;;;;;;9.73;5.78;;;19.10;99.90;;;;;;4992694;28;20026;-54
2023/07/21 07:00:48;;;;;;;9.20;5.95;;;19.10;99.90;;;;;;4991797;28;20019;-51
2023/07/21 07:03:34;;;;;;;8.48;5.85;;;19.20;99.90;;;;;;4991539;28;20026;-53
2023/07/21 07:06:20;;;;;;;6.80;6.10;;;19.10;99.90;;;;;;4991972;28;20114;-50
2023/07/21 07:09:07;;;;;;;9.85;7.18;;;19.20;99.90;;;;;;4991113;28;20039;-53
2023/07/21 07:11:52;;;;;;;8.70;7.90;;;19.00;99.90;;;;;;4990478;28;20503;-50
2023/07/21 07:14:38;;;;;;;8.05;7.15;;;18.90;99.90;;;;;;4991254;28;20433;-48
2023/07/21 07:17:24;;;;;;;10.85;7.25;;;18.80;99.90;;;;;;4991258;28;20114;-53
2023/07/21 07:20:11;;;;;;;8.02;7.22;;;18.70;99.90;;;;;;4993185;28;20022;-53
2023/07/21 07:22:57;;;;;;;7.50;6.80;;;18.60;99.90;;;;;;4992544;28;20030;-53
2023/07/21 07:25:53;;;;;;;7.53;6.80;;;18.80;99.90;;;;;;4992281;28;20034;-48
2023/07/21 07:28:39;;;;;;;7.85;7.03;;;18.90;99.90;;;;;;4991065;28;20057;-50
2023/07/21 07:31:25;;;;;;;7.68;6.70;;;18.90;99.90;;;;;;4992833;28;20031;-52
2023/07/21 07:34:11;;;;;;;9.15;6.90;;;18.90;99.90;;;;;;4990957;28;20035;-52
2023/07/21 07:36:58;;;;;;;8.25;6.07;;;18.90;99.90;;;;;;4991950;28;20031;-53
2023/07/21 07:39:45;;;;;;;6.47;5.32;;;18.80;99.90;;;;;;4992881;28;20399;-50
2023/07/21 07:42:32;;;;;;;7.35;5.70;;;18.90;99.90;;;;;;4993396;28;20084;-50
2023/07/21 07:45:18;;;;;;;6.93;4.95;;;18.80;99.90;;;;;;4992546;28;20038;-52
2023/07/21 07:48:05;;;;;;;8.30;4.82;;;18.80;99.90;;;;;;4990965;28;20038;-50
2023/07/21 07:50:51;;;;;;;8.20;4.40;;;18.50;99.40;;;;;;4991614;28;20026;-54
2023/07/21 07:53:37;;;;;;;6.57;4.30;;;18.30;99.70;;;;;;4991277;28;20031;-52
2023/07/21 07:56:23;;;;;;;6.38;4.63;;;18.10;99.90;;;;;;4990728;28;20026;-53
2023/07/21 07:59:09;;;;;;;11.07;5.07;;;18.00;99.90;;;;;;4990818;28;20034;-55
2023/07/21 08:01:57;;;;;;;8.45;4.60;;;17.80;99.90;;;;;;4991964;28;20019;-50
2023/07/21 08:04:43;;;;;;;7.90;4.72;;;17.80;99.90;;;;;;4989123;28;20460;-54
2023/07/21 08:07:29;;;;;;;6.45;4.88;;;18.00;99.90;;;;;;4985203;28;20054;-54
2023/07/21 08:10:15;;;;;;;10.55;4.60;;;18.20;99.90;;;;;;4992545;28;20030;-53
2023/07/21 08:13:04;;;;;;;6.50;4.90;;;18.30;99.90;;;;;;4992529;28;20042;-49
2023/07/21 08:15:50;;;;;;;6.30;4.10;;;18.40;99.90;;;;;;4992687;28;20158;-49
2023/07/21 08:18:36;;;;;;;5.68;4.65;;;18.40;99.90;;;;;;4990186;28;20066;-53
2023/07/21 08:21:23;;;;;;;6.63;4.65;;;18.50;99.90;;;;;;4991663;28;20042;-55
2023/07/21 08:24:10;;;;;;;6.72;4.88;;;18.50;99.90;;;;;;4995387;28;20030;-50
2023/07/21 08:26:57;;;;;;;5.97;4.72;;;18.50;99.90;;;;;;4995393;28;20517;-52
2023/07/21 08:29:43;;;;;;;5.40;4.30;;;18.50;99.90;;;;;;4995400;28;20562;-51
2023/07/21 08:32:29;;;;;;;6.40;4.35;;;18.50;99.90;;;;;;4995382;28;20034;-54
2023/07/21 08:35:15;;;;;;;6.32;4.75;;;18.60;99.90;;;;;;4994174;28;20030;-52
2023/07/21 08:38:02;;;;;;;7.20;4.28;;;18.70;99.90;;;;;;4994169;28;20037;-51
2023/07/21 08:40:53;;;;;;;4.28;3.88;;;18.70;99.90;;;;;;4994836;28;20517;-50
2023/07/21 08:43:39;;;;;;;4.88;4.28;;;18.80;99.90;;;;;;4994899;28;20480;-52
2023/07/21 08:46:25;;;;;;;5.88;4.50;;;18.90;99.90;;;;;;4994503;28;20411;-50
2023/07/21 08:49:14;;;;;;;8.88;4.72;;;19.10;99.90;;;;;;4992458;28;20045;-50
2023/07/21 08:52:00;;;;;;;5.45;4.43;;;18.90;99.90;;;;;;4994591;28;20133;-51
2023/07/21 08:54:46;;;;;;;6.32;4.47;;;19.10;99.90;;;;;;4994083;28;20045;-48
2023/07/21 08:57:32;;;;;;;4.47;4.07;;;19.20;99.90;;;;;;4994348;28;20496;-52
2023/07/21 09:00:20;;;;;;;7.05;4.80;;;19.20;99.90;;;;;;4994513;28;20093;-54
2023/07/21 09:03:06;;;;;;;6.05;5.28;;;19.20;99.90;;;;;;4995342;28;20068;-49
2023/07/21 09:05:54;;;;;;;5.28;4.30;;;19.10;99.90;;;;;;4993025;28;20046;-53
2023/07/21 09:08:40;;;;;;;5.80;4.57;;;19.40;99.90;;;;;;5006024;28;20018;-51
2023/07/21 09:11:26;;;;;;;5.40;4.90;;;19.50;99.90;;;;;;5010360;28;20026;-47
2023/07/21 09:14:12;;;;;;;6.60;4.88;;;19.70;99.90;;;;;;4993922;28;20113;-48
2023/07/21 09:16:58;;;;;;;7.25;4.70;;;19.80;99.90;;;;;;4993424;28;20443;-55
2023/07/21 09:19:47;;;;;;;9.02;5.10;;;19.90;99.90;;;;;;4992303;28;20034;-49
2023/07/21 09:22:33;;;;;;;5.70;4.68;;;19.80;99.90;;;;;;4994361;28;20034;-54
2023/07/21 09:25:20;;;;;;;5.25;4.50;;;19.80;99.90;;;;;;4994406;28;20030;-54
2023/07/21 09:28:06;;;;;;;5.25;4.63;;;19.80;99.90;;;;;;4993614;28;20038;-52
2023/07/21 09:30:53;;;;;;;4.70;3.90;;;20.00;99.90;;;;;;4993811;28;20496;-53
2023/07/21 09:33:44;;;;;;;5.97;3.97;;;20.10;99.90;;;;;;4993855;28;20027;-55
2023/07/21 09:36:30;;;;;;;6.07;4.47;;;20.30;99.70;;;;;;4993690;28;20104;-51
2023/07/21 09:39:17;;;;;;;4.80;3.88;;;20.40;98.70;;;;;;4993815;28;20030;-53
2023/07/21 09:42:04;;;;;;;7.68;4.97;;;20.50;98.40;;;;;;4992637;28;20391;-50
2023/07/21 09:44:51;;;;;;;9.43;7.80;;;20.30;98.50;;;;;;4993806;28;20041;-52
2023/07/21 09:47:38;;;;;;;5.70;4.80;;;20.10;99.10;;;;;;4985822;28;20041;-54
2023/07/21 09:50:25;;;;;;;4.85;4.30;;;19.90;99.00;;;;;;4991950;28;20503;-49
2023/07/21 09:53:20;;;;;;;8.23;4.57;;;19.70;99.70;;;;;;4992614;28;20494;-50
2023/07/21 09:56:07;;;;;;;;;;;19.80;99.90;;;;;;4992340;28;20030;-51
2023/07/21 09:59:05;;;;;;;5.57;4.57;;;19.80;99.70;;;;;;4993306;28;19906;-53
2023/07/21 10:01:52;;;;;;;5.45;4.32;;;19.70;99.90;;;;;;4990781;28;20027;-53
2023/07/21 10:04:38;;;;;;;5.53;4.10;;;19.60;99.90;;;;;;4993237;28;20038;-51
2023/07/21 10:07:26;;;;;;;7.43;6.00;;;19.60;99.90;;;;;;5006352;28;20058;-53
2023/07/21 10:10:13;;;;;;;6.50;5.80;;;19.40;99.90;;;;;;4992429;28;20030;-53
2023/07/21 10:13:07;;;;;;;4.88;4.43;;;19.50;99.60;;;;;;4993812;28;20503;-53
2023/07/21 10:16:07;;;;;;;6.70;4.82;;;19.40;99.80;;;;;;4992347;28;20615;-50
2023/07/21 10:19:08;;;;;;;5.45;4.68;;;19.50;99.80;;;;;;4992600;28;20117;-56
2023/07/21 10:21:54;;;;;;;6.65;5.38;;;19.60;99.90;;;;;;4992423;28;20542;-52
2023/07/21 10:24:48;;;;;;;15.07;13.20;;;19.50;99.70;;;;;;4991953;28;20030;-50
2023/07/21 10:27:34;;;;;;;7.20;6.00;;;19.70;99.90;;;;;;4993880;28;20030;-52
2023/07/21 10:30:21;;;;;;;5.30;4.80;;;19.70;99.80;;;;;;5007050;28;20105;-50
2023/07/21 10:33:12;;;;;;;6.70;5.88;;;19.90;99.90;;;;;;4992325;28;20113;-54
2023/07/21 10:36:14;;;;;;;7.15;5.85;;;19.90;97.90;;;;;;4992817;28;20046;-52
2023/07/21 10:39:00;;;;;;;9.75;8.77;;;19.80;98.30;;;;;;4990838;28;20420;-53
2023/07/21 10:41:48;;;;;;;6.63;4.90;;;19.80;97.40;;;;;;4993242;28;20113;-52
2023/07/21 10:44:35;;;;;;;14.27;12.93;;;19.90;96.90;;;;;;4990304;28;20023;-52
2023/07/21 10:47:22;;;;;;;7.68;6.22;;;19.90;97.10;;;;;;4972839;28;20041;-54
2023/07/21 10:50:08;;;;;;;8.93;6.40;;;20.00;97.60;;;;;;4972434;28;20061;-52
2023/07/21 10:52:54;;;;;;;5.75;4.60;;;19.90;97.90;;;;;;4972598;28;20118;-49
2023/07/21 10:55:40;;;;;;;5.50;5.00;;;19.90;98.20;;;;;;4973329;28;20034;-52
2023/07/21 10:58:30;;;;;;;4.05;3.65;;;19.80;98.20;;;;;;4973100;28;20026;-50
2023/07/21 11:01:20;;;;;;;10.63;5.20;;;19.80;98.30;;;;;;4974919;28;20046;-54
2023/07/21 11:04:07;;;;;;;6.50;4.00;;;19.80;98.20;;;;;;4992681;28;20026;-50
2023/07/21 11:06:57;;;;;;;4.18;3.63;;;19.70;98.30;;;;;;4993201;28;20034;-51
2023/07/21 11:09:43;;;;;;;5.00;3.80;;;19.80;98.40;;;;;;4992713;28;20030;-51
2023/07/21 11:12:30;;;;;;;7.38;4.05;;;19.90;98.30;;;;;;4992406;28;20109;-49
2023/07/21 11:15:19;;;;;;;3.85;3.30;;;19.90;98.30;;;;;;4991196;28;20061;-49
2023/07/21 11:18:05;;;;;;;5.57;3.63;;;20.00;98.40;;;;;;4991626;28;20023;-51
2023/07/21 11:20:55;;;;;;;5.60;4.40;;;19.90;98.10;;;;;;4993089;28;20522;-52
2023/07/21 11:23:41;;;;;;;4.32;3.90;;;19.90;97.90;;;;;;4987630;28;20492;-52
2023/07/21 11:26:27;;;;;;;4.20;3.35;;;19.90;97.60;;;;;;4973753;28;20030;-49
2023/07/21 11:29:14;;;;;;;5.70;3.40;;;19.90;97.10;;;;;;4973890;28;20042;-53
2023/07/21 11:32:00;;;;;;;4.40;3.60;;;19.90;96.20;;;;;;4977771;28;20038;-52
2023/07/21 11:34:55;;;;;;;6.97;4.28;;;19.80;96.50;;;;;;4972883;28;20062;-53
2023/07/21 11:37:43;;;;;;;4.75;4.15;;;19.90;96.90;;;;;;4986009;28;20061;-52
2023/07/21 11:40:33;;;;;;;4.95;4.45;;;20.10;97.10;;;;;;4992794;28;20522;-53
2023/07/21 11:43:19;;;;;;;6.80;6.03;;;20.20;97.50;;;;;;4992027;28;20050;-49
2023/07/21 11:46:05;;;;;;;6.03;5.43;;;20.50;98.40;;;;;;4991349;28;20569;-49
2023/07/21 11:48:51;;;;;;;7.13;6.45;;;20.70;98.50;;;;;;4991607;28;20561;-52
2023/07/21 11:51:45;;;;;;;7.93;7.13;;;20.70;99.10;;;;;;4991380;28;20073;-51
2023/07/21 11:54:36;;;;;;;7.75;7.05;;;20.70;99.50;;;;;;4991987;28;20339;-50
2023/07/21 11:57:22;;;;;;;9.18;6.93;;;20.60;99.60;;;;;;4992957;28;20427;-48
2023/07/21 12:00:11;;;;;;;7.63;6.25;;;20.60;99.40;;;;;;4994098;28;20403;-52
2023/07/21 12:02:58;;;;;;;6.57;5.97;;;20.50;99.40;;;;;;4980177;28;20034;-49
2023/07/21 12:05:45;;;;;;;7.95;5.70;;;20.60;98.20;;;;;;4976182;28;20085;-51
2023/07/21 12:08:31;;;;;;;5.15;4.47;;;20.70;98.30;;;;;;4975634;28;20070;-50
2023/07/21 12:11:18;;;;;;;6.72;5.35;;;20.90;97.90;;;;;;4977084;28;20468;-48
2023/07/21 12:14:04;;;;;;;6.60;4.60;;;21.30;97.60;;;;;;4975454;28;20043;-50
2023/07/21 12:16:55;;;;;;;5.00;4.43;;;21.60;96.50;;;;;;4979348;28;20026;-53
2023/07/21 12:19:41;;;;;;;5.30;4.80;;;21.90;95.90;;;;;;4995323;28;20065;-49
2023/07/21 12:22:27;;;;;;;4.88;4.32;;;22.30;95.40;;;;;;4994613;28;20023;-50
2023/07/21 12:25:13;;;;;;;4.63;4.13;;;22.50;94.20;;;;;;4995110;28;20031;-53
2023/07/21 12:27:59;;;;;;;5.65;3.80;;;22.60;94.10;;;;;;4993981;28;20439;-54
2023/07/21 12:30:45;;;;;;;3.88;3.22;;;22.70;93.90;;;;;;4995189;28;20578;-52
2023/07/21 12:33:30;;;;;;;5.75;3.50;;;22.70;93.00;;;;;;4995155;28;20034;-50
2023/07/21 12:36:18;;;;;;;4.32;3.85;;;22.80;92.10;;;;;;4995035;28;20099;-52
2023/07/21 12:39:04;;;;;;;4.22;3.60;;;22.60;91.80;;;;;;4993905;28;20038;-50
2023/07/21 12:41:50;;;;;;;4.22;3.50;;;22.80;92.40;;;;;;4994855;28;20062;-51
2023/07/21 12:44:36;;;;;;;3.90;3.50;;;22.90;91.50;;;;;;4993692;28;20318;-52
2023/07/21 12:47:22;;;;;;;3.35;3.05;;;23.30;91.00;;;;;;4994092;28;20038;-51
2023/07/21 12:50:09;;;;;;;4.90;3.83;;;23.50;91.20;;;;;;4993813;28;20023;-51
2023/07/21 12:52:55;;;;;;;4.85;3.83;;;23.70;90.70;;;;;;4994829;28;20034;-55
2023/07/21 12:55:42;;;;;;;5.18;3.45;;;23.70;90.30;;;;;;4994097;28;20030;-53
2023/07/21 12:58:28;;;;;;;4.38;3.97;;;23.70;90.00;;;;;;4994671;28;20037;-53
2023/07/21 13:01:14;;;;;;;4.43;3.33;;;23.80;88.70;;;;;;4993677;28;20081;-55
2023/07/21 13:04:00;;;;;;;3.78;3.40;;;23.90;89.80;;;;;;4995290;28;20081;-53
2023/07/21 13:06:46;;;;;;;4.65;3.20;;;24.30;89.80;;;;;;4994355;28;20085;-48
2023/07/21 13:09:32;;;;;;;3.67;3.22;;;24.70;88.20;;;;;;4993188;28;20026;-53
2023/07/21 13:12:18;;;;;;;4.22;3.45;;;24.70;86.10;;;;;;4993628;28;20129;-52
2023/07/21 13:15:04;;;;;;;3.65;3.20;;;24.80;84.80;;;;;;4994183;28;20038;-50
2023/07/21 13:17:50;;;;;;;5.57;2.97;;;24.70;85.30;;;;;;4992922;28;20025;-50
2023/07/21 13:20:36;;;;;;;5.05;3.45;;;24.60;85.50;;;;;;4994689;28;20499;-48
2023/07/21 13:23:22;;;;;;;7.18;3.38;;;24.60;85.30;;;;;;4994286;28;20034;-52
2023/07/21 13:26:08;;;;;;;4.70;3.05;;;24.80;84.40;;;;;;4993851;28;20057;-52
2023/07/21 13:28:54;;;;;;;3.75;3.25;;;24.80;83.70;;;;;;4992893;28;20034;-53
2023/07/21 13:31:40;;;;;;;5.35;3.20;;;24.80;82.50;;;;;;4992795;28;20030;-52
2023/07/21 13:34:28;;;;;;;3.25;2.88;;;24.30;82.10;;;;;;4993804;28;20089;-53
2023/07/21 13:37:13;;;;;;;3.78;3.00;;;24.10;83.40;;;;;;4992459;28;20089;-52
2023/07/21 13:39:59;;;;;;;3.97;3.33;;;23.90;83.80;;;;;;4994006;28;20022;-53
2023/07/21 13:42:45;;;;;;;3.25;2.70;;;23.50;83.00;;;;;;4993173;28;20080;-50
2023/07/21 13:45:31;;;;;;;3.40;3.10;;;23.30;84.40;;;;;;4992478;28;20035;-52
2023/07/21 13:48:17;;;;;;;3.13;2.83;;;23.00;84.60;;;;;;4980146;28;20066;-47
2023/07/21 13:51:03;;;;;;;4.28;3.38;;;23.20;84.60;;;;;;4994232;28;20122;-47
2023/07/21 13:53:50;;;;;;;4.88;3.40;;;23.20;85.10;;;;;;4993055;28;20510;-50
2023/07/21 13:56:36;;;;;;;7.32;5.82;;;23.50;85.50;;;;;;4993462;28;20418;-49
2023/07/21 13:59:22;;;;;;;4.43;3.33;;;23.70;85.50;;;;;;4993050;28;20025;-52
2023/07/21 14:02:08;;;;;;;3.00;2.70;;;23.70;84.00;;;;;;4992186;28;20127;-52
2023/07/21 14:04:54;;;;;;;4.30;2.92;;;23.80;83.30;;;;;;4992328;28;20085;-51
2023/07/21 14:07:40;;;;;;;6.07;3.55;;;24.00;82.40;;;;;;4993163;28;20054;-48
2023/07/21 14:10:26;;;;;;;8.82;3.60;;;24.40;82.50;;;;;;4993409;28;20062;-53
2023/07/21 14:13:12;;;;;;;3.00;2.70;;;24.80;81.30;;;;;;4992182;28;20479;-55
2023/07/21 14:15:58;;;;;;;5.93;3.13;;;25.30;80.60;;;;;;4991766;28;20062;-53
2023/07/21 14:18:44;;;;;;;3.85;3.40;;;25.50;79.90;;;;;;4992782;28;20054;-52
2023/07/21 14:21:30;;;;;;;5.10;3.63;;;25.90;79.40;;;;;;4993597;28;20027;-50
2023/07/21 14:24:16;;;;;;;4.03;2.88;;;25.80;77.70;;;;;;4991737;28;20030;-49
2023/07/21 14:27:02;;;;;;;6.20;2.90;;;25.50;77.30;;;;;;4991513;28;20117;-52